Time;durP1;ratioP1;P1;durP2;ratioP2;P2;SDS_P1;SDS_P2;PMS_P1;PMS_P2;Temp;Humidity;BMP_temperature;BMP_pressure;BME280_temperature;BME280_humidity;BME280_pressure;Samples;Min_cycle;Max_cycle;Signal;HPM_P1;HPM_P2
2023/02/13 00:00:13;;;;;;;28.50;19.17;;;8.70;99.90;;;;;;4654905;30;20206;-78
2023/02/13 00:02:39;;;;;;;30.30;19.17;;;8.70;99.90;;;;;;4655203;30;20194;-75
2023/02/13 00:05:05;;;;;;;30.13;19.33;;;8.70;99.90;;;;;;4654678;30;20275;-77
2023/02/13 00:07:31;;;;;;;29.42;19.45;;;8.70;99.90;;;;;;4648849;30;20285;-76
2023/02/13 00:09:57;;;;;;;30.52;19.67;;;8.70;99.90;;;;;;4652440;30;20658;-78
2023/02/13 00:12:22;;;;;;;29.88;19.88;;;8.70;99.90;;;;;;4649786;30;20214;-78
2023/02/13 00:14:48;;;;;;;29.15;18.80;;;8.60;99.90;;;;;;4640369;30;20201;-78
2023/02/13 00:17:14;;;;;;;29.20;18.77;;;8.70;99.90;;;;;;4650501;30;20935;-77
2023/02/13 00:19:40;;;;;;;31.95;19.65;;;8.70;99.90;;;;;;4638020;30;20206;-81
2023/02/13 00:22:06;;;;;;;31.58;19.45;;;8.70;99.90;;;;;;4655233;30;20201;-77
2023/02/13 00:24:31;;;;;;;32.78;19.65;;;8.70;99.90;;;;;;4653921;30;20289;-83
2023/02/13 00:26:57;;;;;;;30.70;19.83;;;8.70;99.90;;;;;;4655617;30;20229;-80
2023/02/13 00:29:23;;;;;;;35.58;19.83;;;8.70;99.90;;;;;;4644770;30;20256;-77
2023/02/13 00:31:48;;;;;;;29.63;19.73;;;8.70;99.90;;;;;;4639100;30;20279;-83
2023/02/13 00:34:14;;;;;;;30.42;19.30;;;8.70;99.90;;;;;;4654362;30;20295;-78
2023/02/13 00:36:40;;;;;;;30.92;19.17;;;8.60;99.90;;;;;;4653172;30;20608;-78
2023/02/13 00:39:06;;;;;;;32.10;20.42;;;8.70;99.90;;;;;;4640332;30;20648;-78
2023/02/13 00:41:32;;;;;;;33.42;20.08;;;8.60;99.90;;;;;;4653281;30;20650;-77
2023/02/13 00:43:58;;;;;;;32.38;19.25;;;8.60;99.90;;;;;;4653744;30;20248;-79
2023/02/13 00:46:23;;;;;;;30.48;20.02;;;8.60;99.90;;;;;;4655914;30;20658;-81
2023/02/13 00:48:49;;;;;;;31.83;19.83;;;8.60;99.90;;;;;;4649473;30;20248;-77
2023/02/13 00:51:15;;;;;;;33.28;20.13;;;8.60;99.90;;;;;;4651129;30;20600;-80
2023/02/13 00:53:41;;;;;;;32.83;20.27;;;8.60;99.90;;;;;;4653023;30;20751;-77
2023/02/13 00:56:07;;;;;;;30.60;20.17;;;8.60;99.90;;;;;;4654279;30;21541;-80
2023/02/13 00:58:34;;;;;;;32.97;20.73;;;8.60;99.90;;;;;;4636014;30;20210;-80
2023/02/13 01:01:00;;;;;;;30.45;20.08;;;8.50;99.90;;;;;;4652757;30;20212;-76
2023/02/13 01:03:26;;;;;;;31.90;21.30;;;8.50;99.90;;;;;;4629052;30;20209;-81
2023/02/13 01:05:52;;;;;;;32.78;19.88;;;8.50;99.90;;;;;;4629764;30;20248;-79
2023/02/13 01:08:19;;;;;;;36.22;20.90;;;8.40;99.90;;;;;;4653325;30;20224;-81
2023/02/13 01:10:47;;;;;;;36.20;22.52;;;8.50;99.90;;;;;;4638254;30;20479;-81
2023/02/13 01:13:14;;;;;;;34.65;21.48;;;8.40;99.90;;;;;;4653853;30;20194;-80
2023/02/13 01:15:40;;;;;;;37.53;22.27;;;8.40;99.90;;;;;;4638489;30;20565;-79
2023/02/13 01:18:06;;;;;;;33.92;22.15;;;8.40;99.90;;;;;;4652803;30;20213;-77
2023/02/13 01:20:33;;;;;;;33.75;21.67;;;8.40;99.90;;;;;;4648123;30;20221;-81
2023/02/13 01:22:59;;;;;;;36.05;21.85;;;8.40;99.90;;;;;;4651294;30;20202;-76
2023/02/13 01:25:24;;;;;;;37.40;22.70;;;8.40;99.90;;;;;;4638114;30;20299;-78
2023/02/13 01:27:50;;;;;;;37.00;22.27;;;8.40;99.90;;;;;;4651025;30;20283;-80
2023/02/13 01:30:17;;;;;;;38.50;21.70;;;8.40;99.90;;;;;;4635315;30;20209;-78
2023/02/13 01:32:44;;;;;;;32.83;20.42;;;8.40;99.90;;;;;;4647752;30;20201;-79
2023/02/13 01:35:13;;;;;;;36.33;22.25;;;8.40;99.90;;;;;;4652493;30;20374;-76
2023/02/13 01:37:39;;;;;;;34.55;21.92;;;8.40;99.90;;;;;;4638230;30;20204;-81
2023/02/13 01:40:09;;;;;;;34.50;21.77;;;8.40;99.90;;;;;;4652182;30;22435;-77
2023/02/13 01:42:35;;;;;;;35.40;21.23;;;8.40;99.90;;;;;;4633175;30;20197;-79
2023/02/13 01:45:05;;;;;;;38.13;22.10;;;8.40;99.90;;;;;;4612241;30;20229;-78
2023/02/13 01:47:39;;;;;;;35.42;21.45;;;8.40;99.90;;;;;;4653974;30;20505;-77
2023/02/13 01:50:10;;;;;;;35.08;22.02;;;8.30;99.90;;;;;;4637921;30;20434;-78
2023/02/13 01:52:41;;;;;;;32.08;20.65;;;8.30;99.90;;;;;;4628466;30;20307;-80
2023/02/13 01:55:08;;;;;;;35.97;22.00;;;8.30;99.90;;;;;;4652507;30;20764;-76
2023/02/13 01:57:38;;;;;;;38.20;22.45;;;8.30;99.90;;;;;;4630896;30;20204;-79
2023/02/13 02:00:16;;;;;;;34.70;21.98;;;8.30;99.90;;;;;;4638768;30;20527;-77
2023/02/13 02:02:50;;;;;;;35.95;21.83;;;8.30;99.90;;;;;;4652250;30;20189;-79
2023/02/13 02:05:22;;;;;;;34.47;21.77;;;8.30;99.90;;;;;;4641017;30;21280;-75
2023/02/13 02:07:48;;;;;;;37.70;22.65;;;8.30;99.90;;;;;;4647119;30;20212;-78
2023/02/13 02:10:20;;;;;;;34.47;22.33;;;8.30;99.90;;;;;;4641030;30;20208;-79
2023/02/13 02:12:50;;;;;;;35.78;22.48;;;8.30;99.90;;;;;;4631275;30;20863;-76
2023/02/13 02:15:18;;;;;;;33.53;22.10;;;8.30;99.90;;;;;;4650304;30;20250;-76
2023/02/13 02:17:44;;;;;;;41.00;23.50;;;8.30;99.90;;;;;;4651052;30;20561;-78
2023/02/13 02:21:03;;;;;;;37.53;22.30;;;8.30;99.90;;;;;;4632296;30;20266;-81
2023/02/13 02:23:50;;;;;;;36.90;22.70;;;8.20;99.90;;;;;;4651400;30;20198;-76
2023/02/13 02:26:42;;;;;;;34.50;22.10;;;8.20;99.90;;;;;;4621075;30;20203;-77
2023/02/13 02:29:20;;;;;;;37.78;22.33;;;8.20;99.90;;;;;;4629773;30;20301;-77
2023/02/13 02:32:13;;;;;;;34.97;21.73;;;8.10;99.90;;;;;;4641055;30;20193;-79
2023/02/13 02:34:48;;;;;;;36.08;21.75;;;8.20;99.90;;;;;;4654602;30;20198;-77
2023/02/13 02:37:26;;;;;;;34.25;21.42;;;8.20;99.90;;;;;;4630973;30;20204;-76
2023/02/13 02:40:11;;;;;;;36.33;21.85;;;8.10;99.90;;;;;;4630814;30;20284;-80
2023/02/13 02:43:08;;;;;;;37.08;22.42;;;8.10;99.90;;;;;;4631472;30;20217;-80
2023/02/13 02:46:04;;;;;;;35.33;21.23;;;8.10;99.90;;;;;;4646988;30;20255;-77
2023/02/13 02:51:23;;;;;;;34.58;21.45;;;8.10;99.90;;;;;;4628440;30;20996;-76
2023/02/13 02:57:26;;;;;;;34.78;20.95;;;8.10;99.90;;;;;;4630233;30;20775;-76
2023/02/13 03:13:17;;;;;;;31.95;20.20;;;8.00;99.90;;;;;;4655381;30;20217;-76
2023/02/13 03:13:50;;;;;;;33.90;19.92;;;8.00;99.90;;;;;;4653981;30;20201;-77
2023/02/13 03:22:19;;;;;;;35.63;21.10;;;8.00;99.90;;;;;;4652992;30;20255;-77
2023/02/13 03:25:36;;;;;;;33.65;20.75;;;8.00;99.90;;;;;;4651687;30;20291;-76
2023/02/13 03:31:01;;;;;;;36.42;20.55;;;7.90;99.90;;;;;;4652865;30;20351;-82
2023/02/13 03:33:49;;;;;;;35.08;21.38;;;7.90;99.90;;;;;;4653129;30;20197;-78
2023/02/13 03:39:08;;;;;;;35.63;21.77;;;7.90;99.90;;;;;;4653421;30;20205;-79
2023/02/13 03:41:46;;;;;;;34.63;21.52;;;7.90;99.90;;;;;;4653509;30;20204;-78
2023/02/13 03:44:43;;;;;;;32.50;20.75;;;7.90;99.90;;;;;;4650816;30;20679;-78
2023/02/13 03:47:11;;;;;;;32.83;20.25;;;7.90;99.90;;;;;;4655268;30;20244;-75
2023/02/13 03:52:36;;;;;;;32.17;20.15;;;7.90;99.90;;;;;;4650812;30;20202;-79
2023/02/13 04:00:57;;;;;;;34.53;20.52;;;7.90;99.90;;;;;;4651613;30;20202;-81
2023/02/13 04:03:49;;;;;;;34.45;20.15;;;7.90;99.90;;;;;;4643937;30;20206;-80
2023/02/13 04:06:20;;;;;;;33.58;21.17;;;7.80;99.90;;;;;;4652820;30;20264;-81
2023/02/13 04:08:46;;;;;;;35.65;21.95;;;7.80;99.90;;;;;;4653065;30;20260;-78
2023/02/13 04:11:44;;;;;;;33.17;21.27;;;7.80;99.90;;;;;;4638958;30;20637;-77
2023/02/13 04:14:28;;;;;;;35.00;22.05;;;7.80;99.90;;;;;;4652422;30;20288;-77
2023/02/13 04:17:07;;;;;;;34.78;21.48;;;7.90;99.90;;;;;;4648877;30;20655;-78
2023/02/13 04:19:34;;;;;;;36.47;22.17;;;7.90;99.90;;;;;;4654599;30;20198;-79
2023/02/13 04:22:01;;;;;;;34.30;21.25;;;7.90;99.90;;;;;;4653223;30;20193;-79
2023/02/13 04:24:27;;;;;;;33.30;20.83;;;7.90;99.90;;;;;;4652793;30;20204;-80
2023/02/13 04:26:54;;;;;;;32.97;21.27;;;7.90;99.90;;;;;;4647823;30;20201;-77
2023/02/13 04:29:24;;;;;;;35.28;20.77;;;7.90;99.90;;;;;;4647972;30;20216;-80
2023/02/13 04:31:50;;;;;;;34.60;21.50;;;7.90;99.90;;;;;;4652873;30;20266;-77
2023/02/13 04:34:17;;;;;;;34.28;20.92;;;7.90;99.90;;;;;;4654511;30;20197;-77
2023/02/13 04:36:42;;;;;;;32.40;21.48;;;7.80;99.90;;;;;;4636985;30;20363;-80
2023/02/13 04:39:10;;;;;;;35.38;21.58;;;7.80;99.90;;;;;;4652482;30;20247;-77
2023/02/13 04:41:35;;;;;;;34.53;21.73;;;7.90;99.90;;;;;;4652598;30;20276;-80
2023/02/13 04:44:01;;;;;;;34.17;21.95;;;7.80;99.90;;;;;;4653723;30;20914;-80
2023/02/13 04:46:27;;;;;;;37.08;21.63;;;7.90;99.90;;;;;;4654892;30;20212;-78
2023/02/13 04:48:53;;;;;;;35.85;21.08;;;7.80;99.90;;;;;;4650037;30;20224;-80
2023/02/13 04:51:19;;;;;;;35.10;21.40;;;7.80;99.90;;;;;;4654035;30;21036;-77
2023/02/13 04:53:44;;;;;;;32.45;20.75;;;7.70;99.90;;;;;;4651998;30;20202;-81
2023/02/13 04:56:10;;;;;;;33.60;20.60;;;7.80;99.90;;;;;;4653754;30;20699;-77
2023/02/13 04:58:36;;;;;;;34.08;21.13;;;7.80;99.90;;;;;;4653728;30;20197;-77
2023/02/13 05:01:02;;;;;;;32.63;20.63;;;7.80;99.90;;;;;;4653785;30;20734;-79
2023/02/13 05:03:28;;;;;;;36.75;21.63;;;7.70;99.90;;;;;;4632166;30;20221;-77
2023/02/13 05:05:53;;;;;;;34.47;21.05;;;7.70;99.90;;;;;;4652200;30;20368;-79
2023/02/13 05:08:19;;;;;;;34.35;20.65;;;7.70;99.90;;;;;;4655502;30;20264;-81
2023/02/13 05:10:45;;;;;;;37.00;21.55;;;7.70;99.90;;;;;;4654406;30;20205;-77
2023/02/13 05:13:11;;;;;;;37.00;21.17;;;7.70;99.90;;;;;;4654922;30;20716;-82
2023/02/13 05:15:36;;;;;;;36.22;21.90;;;7.70;99.90;;;;;;4650983;30;20213;-78
2023/02/13 05:18:02;;;;;;;34.55;21.15;;;7.70;99.90;;;;;;4652548;30;21010;-77
2023/02/13 05:20:28;;;;;;;36.15;21.67;;;7.70;99.90;;;;;;4642101;30;20203;-78
2023/02/13 05:25:39;;;;;;;36.67;21.60;;;7.70;99.90;;;;;;4649163;30;20267;-75
2023/02/13 05:29:17;;;;;;;35.63;21.38;;;7.60;99.90;;;;;;4652262;30;20224;-75
2023/02/13 05:30:52;;;;;;;37.10;21.15;;;7.60;99.90;;;;;;4652622;30;20236;-77
2023/02/13 05:33:17;;;;;;;36.45;22.25;;;7.60;99.90;;;;;;4639458;30;20327;-80
2023/02/13 05:35:43;;;;;;;36.97;22.02;;;7.60;99.90;;;;;;4650071;30;20205;-76
2023/02/13 05:38:09;;;;;;;39.58;21.92;;;7.60;99.90;;;;;;4636658;30;20213;-76
2023/02/13 05:40:35;;;;;;;36.00;22.00;;;7.60;99.90;;;;;;4652526;30;20211;-79
2023/02/13 05:43:00;;;;;;;37.63;22.65;;;7.70;99.90;;;;;;4625530;30;20700;-77
2023/02/13 05:45:26;;;;;;;35.80;22.15;;;7.70;99.90;;;;;;4652738;30;20206;-77
2023/02/13 05:47:52;;;;;;;34.47;21.15;;;7.60;99.90;;;;;;4653173;30;20233;-77
2023/02/13 05:50:18;;;;;;;35.75;21.02;;;7.60;99.90;;;;;;4652066;30;20201;-76
2023/02/13 05:52:43;;;;;;;35.97;21.13;;;7.60;99.90;;;;;;4637380;30;20630;-78
2023/02/13 05:55:09;;;;;;;39.53;21.95;;;7.60;99.90;;;;;;4646753;30;20197;-81
2023/02/13 05:57:35;;;;;;;37.97;22.40;;;7.60;99.90;;;;;;4647997;30;20656;-76
2023/02/13 06:00:01;;;;;;;34.10;21.90;;;7.60;99.90;;;;;;4650931;30;20294;-79
2023/02/13 06:02:26;;;;;;;38.30;22.58;;;7.60;99.90;;;;;;4651141;30;20201;-76
2023/02/13 06:04:52;;;;;;;37.05;22.15;;;7.60;99.90;;;;;;4651187;30;21742;-79
2023/02/13 06:07:18;;;;;;;38.22;22.83;;;7.60;99.90;;;;;;4638399;30;20256;-76
2023/02/13 06:09:44;;;;;;;38.92;23.52;;;7.60;99.90;;;;;;4629602;30;20216;-80
2023/02/13 06:12:09;;;;;;;38.47;22.63;;;7.60;99.90;;;;;;4646816;30;20679;-75
2023/02/13 06:14:35;;;;;;;43.35;23.05;;;7.60;99.90;;;;;;4649810;30;20198;-77
2023/02/13 06:17:01;;;;;;;37.60;21.80;;;7.60;99.90;;;;;;4648642;30;20242;-78
2023/02/13 06:19:26;;;;;;;37.22;22.13;;;7.60;99.90;;;;;;4647543;30;21289;-78
2023/02/13 06:21:52;;;;;;;39.90;22.55;;;7.60;99.90;;;;;;4650613;30;20254;-75
2023/02/13 06:24:18;;;;;;;39.30;22.17;;;7.60;99.90;;;;;;4652805;30;20216;-76
2023/02/13 06:26:44;;;;;;;38.28;22.75;;;7.50;99.90;;;;;;4652215;30;20696;-75
2023/02/13 06:29:10;;;;;;;36.25;22.15;;;7.60;99.90;;;;;;4650644;30;20232;-80
2023/02/13 06:31:35;;;;;;;40.20;23.02;;;7.60;99.90;;;;;;4650892;30;20328;-81
2023/02/13 06:34:01;;;;;;;35.63;22.15;;;7.60;99.90;;;;;;4647418;30;20209;-80
2023/02/13 06:36:27;;;;;;;38.55;22.73;;;7.50;99.90;;;;;;4650088;30;20207;-81
2023/02/13 06:38:53;;;;;;;44.08;23.88;;;7.60;99.90;;;;;;4652121;30;20210;-77
2023/02/13 06:41:19;;;;;;;41.25;23.38;;;7.60;99.90;;;;;;4652059;30;20945;-79
2023/02/13 06:43:44;;;;;;;39.13;23.25;;;7.60;99.90;;;;;;4650918;30;20630;-80
2023/02/13 06:46:10;;;;;;;39.00;22.25;;;7.50;99.90;;;;;;4641953;30;20680;-77
2023/02/13 06:48:36;;;;;;;38.25;23.20;;;7.60;99.90;;;;;;4655355;30;20241;-75
2023/02/13 06:51:02;;;;;;;38.88;22.73;;;7.60;99.90;;;;;;4649698;30;20201;-77
2023/02/13 06:53:28;;;;;;;38.28;23.05;;;7.50;99.90;;;;;;4639072;30;20198;-76
2023/02/13 06:55:54;;;;;;;39.35;21.95;;;7.60;99.90;;;;;;4655404;30;20206;-78
2023/02/13 06:58:21;;;;;;;39.67;23.25;;;7.50;99.90;;;;;;4652256;30;20260;-75
2023/02/13 07:00:47;;;;;;;40.00;23.90;;;7.60;99.90;;;;;;4653882;30;20208;-77
2023/02/13 07:03:13;;;;;;;39.42;22.77;;;7.50;99.90;;;;;;4650624;30;20219;-79
2023/02/13 07:05:40;;;;;;;39.45;22.05;;;7.50;99.90;;;;;;4650593;30;20644;-80
2023/02/13 07:08:07;;;;;;;37.75;22.67;;;7.50;99.90;;;;;;4630810;30;20233;-76
2023/02/13 07:10:32;;;;;;;41.70;23.35;;;7.50;99.90;;;;;;4654556;30;20233;-75
2023/02/13 07:12:58;;;;;;;38.70;22.00;;;7.50;99.90;;;;;;4653162;30;20741;-79
2023/02/13 07:15:24;;;;;;;38.17;22.90;;;7.50;99.90;;;;;;4653492;30;20197;-78
2023/02/13 07:17:57;;;;;;;39.60;22.10;;;7.50;99.90;;;;;;4653145;30;20305;-80
2023/02/13 07:20:24;;;;;;;43.80;23.42;;;7.50;99.90;;;;;;4649214;30;20197;-76
2023/02/13 07:22:50;;;;;;;37.88;22.33;;;7.50;99.90;;;;;;4635202;30;20208;-80
2023/02/13 07:25:16;;;;;;;41.58;22.70;;;7.50;99.90;;;;;;4654843;30;20240;-82
2023/02/13 07:27:42;;;;;;;35.47;22.25;;;7.50;99.90;;;;;;4654257;30;20821;-80
2023/02/13 07:30:08;;;;;;;39.75;23.20;;;7.50;99.90;;;;;;4653037;30;20197;-78
2023/02/13 07:32:34;;;;;;;39.35;22.73;;;7.50;99.90;;;;;;4654354;30;20205;-76
2023/02/13 07:35:00;;;;;;;36.42;22.75;;;7.50;99.90;;;;;;4653869;30;20198;-80
2023/02/13 07:37:29;;;;;;;37.72;22.88;;;7.50;99.90;;;;;;4653857;30;20681;-77
2023/02/13 07:39:55;;;;;;;38.88;22.75;;;7.40;99.90;;;;;;4651533;30;20255;-75
2023/02/13 07:42:21;;;;;;;41.22;22.38;;;7.40;99.90;;;;;;4649808;30;20202;-75
2023/02/13 07:44:47;;;;;;;40.42;22.52;;;7.40;99.90;;;;;;4636738;30;21256;-80
2023/02/13 07:47:12;;;;;;;38.28;21.77;;;7.40;99.90;;;;;;4650524;30;20570;-75
2023/02/13 07:49:38;;;;;;;40.20;23.55;;;7.40;99.90;;;;;;4650998;30;20229;-76
2023/02/13 07:52:05;;;;;;;38.35;22.80;;;7.50;99.90;;;;;;4636885;30;20217;-79
2023/02/13 07:54:31;;;;;;;37.10;21.25;;;7.50;99.90;;;;;;4650109;30;20247;-78
2023/02/13 07:56:58;;;;;;;36.97;21.77;;;7.50;99.90;;;;;;4647694;30;20292;-79
2023/02/13 07:59:24;;;;;;;36.90;21.75;;;7.50;99.90;;;;;;4650215;30;20291;-77
2023/02/13 08:01:49;;;;;;;36.25;21.92;;;7.50;99.90;;;;;;4638270;30;20284;-76
2023/02/13 08:04:15;;;;;;;43.00;22.55;;;7.50;99.90;;;;;;4651101;30;20744;-76
2023/02/13 08:06:42;;;;;;;39.03;21.98;;;7.50;99.90;;;;;;4654205;30;20209;-84
2023/02/13 08:12:01;;;;;;;36.70;21.90;;;7.50;99.90;;;;;;4650228;30;20689;-79
2023/02/13 08:14:27;;;;;;;39.90;23.23;;;7.60;99.90;;;;;;4652642;30;20297;-78
2023/02/13 08:16:54;;;;;;;37.03;22.13;;;7.60;99.90;;;;;;4653781;30;20197;-79
2023/02/13 08:19:19;;;;;;;38.95;22.98;;;7.60;99.90;;;;;;4639720;30;20208;-78
2023/02/13 08:21:45;;;;;;;40.13;21.58;;;7.60;99.90;;;;;;4628707;30;20344;-78
2023/02/13 08:24:11;;;;;;;37.28;22.80;;;7.60;99.90;;;;;;4644826;30;20213;-80
2023/02/13 08:26:38;;;;;;;36.00;21.60;;;7.50;99.90;;;;;;4649698;30;20213;-76
2023/02/13 08:29:05;;;;;;;38.15;22.33;;;7.60;99.90;;;;;;4650693;30;20287;-77
2023/02/13 08:31:30;;;;;;;37.15;21.48;;;7.60;99.90;;;;;;4653343;30;20217;-76
2023/02/13 08:33:57;;;;;;;37.20;21.05;;;7.60;99.90;;;;;;4637080;30;20221;-77
2023/02/13 08:36:23;;;;;;;39.97;22.92;;;7.60;99.90;;;;;;4653550;30;20200;-77
2023/02/13 08:38:49;;;;;;;39.45;22.40;;;7.60;99.90;;;;;;4651638;30;20200;-77
2023/02/13 08:41:22;;;;;;;39.10;21.65;;;7.60;99.90;;;;;;4649022;30;20666;-83
2023/02/13 08:43:49;;;;;;;38.03;21.83;;;7.60;99.90;;;;;;4653328;30;20189;-76
2023/02/13 08:46:16;;;;;;;43.53;21.77;;;7.70;99.90;;;;;;4652704;30;20273;-76
2023/02/13 08:48:42;;;;;;;35.47;21.63;;;7.70;99.90;;;;;;4643634;30;20240;-80
2023/02/13 08:51:09;;;;;;;37.33;21.33;;;7.60;99.90;;;;;;4642676;30;20559;-76
2023/02/13 08:53:36;;;;;;;37.30;22.00;;;7.70;99.90;;;;;;4652013;30;20212;-74
2023/02/13 08:56:02;;;;;;;36.78;21.63;;;7.60;99.90;;;;;;4651790;30;20201;-79
2023/02/13 08:58:27;;;;;;;40.03;22.90;;;7.60;99.90;;;;;;4650909;30;20205;-80
2023/02/13 09:00:53;;;;;;;40.28;23.35;;;7.70;99.90;;;;;;4649711;30;21058;-74
2023/02/13 09:03:19;;;;;;;35.08;21.48;;;7.60;99.90;;;;;;4649209;30;20620;-78
2023/02/13 09:05:46;;;;;;;40.97;23.45;;;7.70;99.90;;;;;;4647735;30;20248;-77
2023/02/13 09:08:12;;;;;;;37.33;22.45;;;7.70;99.90;;;;;;4649431;30;20717;-79
2023/02/13 09:10:39;;;;;;;36.88;21.85;;;7.70;99.90;;;;;;4652005;30;20288;-76
2023/02/13 09:13:06;;;;;;;38.17;22.40;;;7.70;99.90;;;;;;4651925;30;20581;-78
2023/02/13 09:15:32;;;;;;;41.35;21.98;;;7.70;99.90;;;;;;4651248;30;20204;-79
2023/02/13 09:17:58;;;;;;;40.28;22.55;;;7.70;99.90;;;;;;4649772;30;20603;-77
2023/02/13 09:20:24;;;;;;;41.00;23.02;;;7.80;99.90;;;;;;4650051;30;20228;-74
2023/02/13 09:22:49;;;;;;;39.72;21.83;;;7.80;99.90;;;;;;4652678;30;20867;-75
2023/02/13 09:25:15;;;;;;;39.15;23.70;;;7.70;99.90;;;;;;4652016;30;20304;-74
2023/02/13 09:27:41;;;;;;;42.80;23.63;;;7.70;99.90;;;;;;4617105;30;20196;-76
2023/02/13 09:30:09;;;;;;;39.60;23.75;;;7.70;99.90;;;;;;4649894;30;20197;-79
2023/02/13 09:32:39;;;;;;;40.17;22.95;;;7.70;99.90;;;;;;4651751;30;20198;-77
2023/02/13 09:35:05;;;;;;;38.40;22.95;;;7.70;99.90;;;;;;4650909;30;20209;-74
2023/02/13 09:37:31;;;;;;;38.25;22.48;;;7.80;99.90;;;;;;4651723;30;20202;-75
2023/02/13 09:39:57;;;;;;;40.15;22.58;;;7.70;99.90;;;;;;4648652;30;20215;-77
2023/02/13 09:42:30;;;;;;;37.15;22.50;;;7.80;99.90;;;;;;4649126;30;20652;-79
2023/02/13 09:45:02;;;;;;;39.30;23.05;;;7.70;99.90;;;;;;4649145;30;20200;-75
2023/02/13 09:47:32;;;;;;;40.58;22.33;;;7.80;99.90;;;;;;4652539;30;20569;-78
2023/02/13 09:50:18;;;;;;;45.03;22.67;;;7.80;99.90;;;;;;4650951;30;20220;-75
2023/02/13 09:52:45;;;;;;;39.47;22.80;;;7.80;99.90;;;;;;4648223;30;20878;-75
2023/02/13 09:55:30;;;;;;;36.90;22.00;;;7.80;99.90;;;;;;4653707;30;20216;-80
2023/02/13 09:58:14;;;;;;;41.95;23.05;;;7.80;99.90;;;;;;4653019;30;20788;-73
2023/02/13 10:00:43;;;;;;;41.25;23.05;;;7.80;99.90;;;;;;4651682;30;20272;-74
2023/02/13 10:03:11;;;;;;;40.13;21.75;;;7.80;99.90;;;;;;4649695;30;20233;-78
2023/02/13 10:06:04;;;;;;;42.70;23.50;;;7.80;99.90;;;;;;4651487;30;20327;-75
2023/02/13 10:09:01;;;;;;;43.63;23.05;;;7.80;99.90;;;;;;4651882;30;20229;-76
2023/02/13 10:11:56;;;;;;;44.42;22.20;;;7.80;99.90;;;;;;4650477;30;20552;-79
2023/02/13 10:14:25;;;;;;;37.88;21.83;;;7.80;99.90;;;;;;4620312;30;20203;-75
2023/02/13 10:17:13;;;;;;;36.28;20.67;;;7.80;99.90;;;;;;4652601;30;20200;-76
2023/02/13 10:19:45;;;;;;;38.55;21.50;;;7.90;99.90;;;;;;4650884;30;21105;-79
2023/02/13 10:22:22;;;;;;;38.40;21.35;;;7.90;99.90;;;;;;4654820;30;20181;-75
2023/02/13 10:25:01;;;;;;;38.15;20.77;;;7.90;99.90;;;;;;4650914;30;20197;-76
2023/02/13 10:27:44;;;;;;;36.40;20.45;;;7.90;99.90;;;;;;4654389;30;20190;-76
2023/02/13 10:30:20;;;;;;;36.55;21.35;;;8.00;99.90;;;;;;4637665;30;20209;-77
2023/02/13 10:33:09;;;;;;;36.40;20.65;;;7.90;99.90;;;;;;4654921;30;20742;-76
2023/02/13 10:35:37;;;;;;;36.55;20.90;;;7.90;99.90;;;;;;4655281;30;20186;-79
2023/02/13 10:38:14;;;;;;;38.15;22.40;;;7.90;99.90;;;;;;4642288;30;20249;-79
2023/02/13 10:40:46;;;;;;;37.05;21.75;;;7.90;99.90;;;;;;4651718;30;20288;-75
2023/02/13 10:43:19;;;;;;;39.95;21.75;;;8.00;99.90;;;;;;4652426;30;20197;-74
2023/02/13 10:46:10;;;;;;;41.28;21.15;;;8.00;99.90;;;;;;4654584;30;20189;-74
2023/02/13 10:48:38;;;;;;;36.38;20.30;;;8.00;99.90;;;;;;4654737;30;20517;-73
2023/02/13 10:51:27;;;;;;;34.38;20.67;;;8.00;99.90;;;;;;4653778;30;20205;-75
2023/02/13 10:54:14;;;;;;;37.65;21.10;;;8.00;99.90;;;;;;4654449;30;20219;-75
2023/02/13 10:56:53;;;;;;;38.88;20.90;;;8.00;99.90;;;;;;4653788;30;20238;-73
2023/02/13 10:59:22;;;;;;;39.78;22.35;;;7.90;99.90;;;;;;4653624;30;20193;-77
2023/02/13 11:02:19;;;;;;;40.10;21.42;;;8.00;99.90;;;;;;4652707;30;20765;-76
2023/02/13 11:04:45;;;;;;;37.25;21.00;;;8.00;99.90;;;;;;4653527;30;20556;-73
2023/02/13 11:07:16;;;;;;;37.05;21.77;;;8.00;99.90;;;;;;4653488;30;20277;-74
2023/02/13 11:09:46;;;;;;;37.47;19.42;;;8.10;99.90;;;;;;4649395;30;20224;-75
2023/02/13 11:12:38;;;;;;;37.20;21.67;;;8.10;99.90;;;;;;4653505;30;20205;-74
2023/02/13 11:15:07;;;;;;;39.45;21.40;;;8.00;99.90;;;;;;4651137;30;20217;-82
2023/02/13 11:17:41;;;;;;;39.78;22.02;;;8.00;99.90;;;;;;4638241;30;20263;-76
2023/02/13 11:20:25;;;;;;;39.33;20.27;;;8.00;99.90;;;;;;4651278;30;20197;-76
2023/02/13 11:22:51;;;;;;;39.70;21.38;;;8.00;99.90;;;;;;4641804;30;20198;-74
2023/02/13 11:25:24;;;;;;;41.88;22.10;;;8.10;99.90;;;;;;4654162;30;20197;-74
2023/02/13 11:28:06;;;;;;;38.13;21.40;;;8.10;99.90;;;;;;4653631;30;20221;-80
2023/02/13 11:30:35;;;;;;;37.60;21.50;;;8.10;99.90;;;;;;4647898;30;20201;-76
2023/02/13 11:33:17;;;;;;;38.78;20.85;;;8.20;99.90;;;;;;4653165;30;20204;-75
2023/02/13 11:35:45;;;;;;;41.72;21.75;;;8.20;99.90;;;;;;4654261;30;20189;-75
2023/02/13 11:38:10;;;;;;;36.17;20.02;;;8.20;99.90;;;;;;4653138;30;20252;-79
2023/02/13 11:40:37;;;;;;;33.75;19.77;;;8.20;99.90;;;;;;4653515;30;20284;-75
2023/02/13 11:43:07;;;;;;;34.83;20.60;;;8.20;99.90;;;;;;4653638;30;20213;-80
2023/02/13 11:45:33;;;;;;;40.20;21.00;;;8.20;99.90;;;;;;4652964;30;20204;-76
2023/02/13 11:47:59;;;;;;;36.97;20.73;;;8.20;99.90;;;;;;4656373;30;20230;-76
2023/02/13 11:50:28;;;;;;;37.45;20.63;;;8.20;99.90;;;;;;4627089;30;20816;-81
2023/02/13 11:52:57;;;;;;;34.83;20.05;;;8.20;99.90;;;;;;4648336;30;20210;-77
2023/02/13 11:55:36;;;;;;;37.05;21.05;;;8.20;99.90;;;;;;4653848;30;20202;-80
2023/02/13 11:58:14;;;;;;;39.00;20.08;;;8.20;99.90;;;;;;4653959;30;20236;-75
2023/02/13 12:00:42;;;;;;;35.80;19.67;;;8.20;99.90;;;;;;4652822;30;20644;-77
2023/02/13 12:03:40;;;;;;;37.22;20.27;;;8.30;99.90;;;;;;4648812;30;20633;-77
2023/02/13 12:06:12;;;;;;;33.80;20.33;;;8.30;99.90;;;;;;4636914;30;20241;-76
2023/02/13 12:08:40;;;;;;;37.60;20.27;;;8.30;99.90;;;;;;4644807;30;20291;-80
2023/02/13 12:11:19;;;;;;;35.67;20.73;;;8.40;99.90;;;;;;4653039;30;20506;-77
2023/02/13 12:13:46;;;;;;;35.75;20.40;;;8.30;99.90;;;;;;4649793;30;20190;-78
2023/02/13 12:16:44;;;;;;;35.42;19.80;;;8.40;99.90;;;;;;4648063;30;20205;-77
2023/02/13 12:19:19;;;;;;;38.50;20.80;;;8.40;99.90;;;;;;4646854;30;20210;-76
2023/02/13 12:21:47;;;;;;;38.38;20.95;;;8.40;99.90;;;;;;4647977;30;20205;-77
2023/02/13 12:24:52;;;;;;;39.17;20.17;;;8.40;99.90;;;;;;4652771;30;20220;-75
2023/02/13 12:27:27;;;;;;;35.00;19.45;;;8.40;99.90;;;;;;4626404;30;20244;-80
2023/02/13 12:30:05;;;;;;;36.85;19.38;;;8.40;99.90;;;;;;4628198;30;20636;-78
2023/02/13 12:33:07;;;;;;;33.55;19.17;;;8.40;99.90;;;;;;4651838;30;20249;-81
2023/02/13 12:35:48;;;;;;;32.08;18.95;;;8.50;99.90;;;;;;4648034;30;20661;-77
2023/02/13 12:38:23;;;;;;;35.63;20.75;;;8.50;99.90;;;;;;4652143;30;20307;-77
2023/02/13 12:40:56;;;;;;;34.55;18.75;;;8.50;99.90;;;;;;4651568;30;20203;-76
2023/02/13 12:43:43;;;;;;;33.58;19.77;;;8.50;99.90;;;;;;4637524;30;20212;-76
2023/02/13 12:46:29;;;;;;;34.28;19.80;;;8.50;99.90;;;;;;4654368;30;20190;-78
2023/02/13 12:49:17;;;;;;;33.45;19.83;;;8.50;99.90;;;;;;4654385;30;20209;-80
2023/02/13 12:52:06;;;;;;;35.33;19.95;;;8.50;99.90;;;;;;4653368;30;20201;-74
2023/02/13 12:54:40;;;;;;;37.45;20.30;;;8.50;99.90;;;;;;4651493;30;20648;-80
2023/02/13 12:57:31;;;;;;;39.55;20.38;;;8.50;99.90;;;;;;4632265;30;20291;-77
2023/02/13 13:00:19;;;;;;;31.00;18.63;;;8.60;99.90;;;;;;4629910;30;20204;-80
2023/02/13 13:03:07;;;;;;;36.45;20.52;;;8.60;99.90;;;;;;4617742;30;20222;-78
2023/02/13 13:05:59;;;;;;;37.03;19.90;;;8.60;99.90;;;;;;4652286;30;22837;-80
2023/02/13 13:08:57;;;;;;;35.63;19.95;;;8.60;99.90;;;;;;4651167;30;20686;-77
2023/02/13 13:11:48;;;;;;;37.90;19.60;;;8.70;99.90;;;;;;4635397;30;20381;-75
2023/02/13 13:14:16;;;;;;;42.25;21.13;;;8.70;99.90;;;;;;4653479;30;20192;-79
2023/02/13 13:17:06;;;;;;;33.78;20.08;;;8.70;99.90;;;;;;4652824;30;20193;-76
2023/02/13 13:19:51;;;;;;;36.08;20.08;;;8.70;99.90;;;;;;4655327;30;20255;-75
2023/02/13 13:22:21;;;;;;;33.50;20.50;;;8.80;99.90;;;;;;4628170;30;20197;-77
2023/02/13 13:24:52;;;;;;;35.95;20.85;;;8.80;99.90;;;;;;4646949;30;20286;-79
2023/02/13 13:27:30;;;;;;;37.15;20.70;;;8.80;99.90;;;;;;4634267;30;20204;-76
2023/02/13 13:30:14;;;;;;;37.78;20.98;;;8.80;99.90;;;;;;4644121;30;20839;-78
2023/02/13 13:32:41;;;;;;;38.17;21.17;;;8.90;99.90;;;;;;4647629;30;20189;-76
2023/02/13 13:35:16;;;;;;;35.75;20.58;;;8.90;99.90;;;;;;4652608;30;20321;-75
2023/02/13 13:38:01;;;;;;;39.95;20.98;;;8.90;99.90;;;;;;4647108;30;20288;-75
2023/02/13 13:40:45;;;;;;;41.80;21.20;;;8.90;99.90;;;;;;4652279;30;20289;-79